Maxeys, Georgia
Current Conditions -  °F | °C
As of 5:15 PM on Tuesday 21 Oct 2014 (Local Time) from K3J7 Reporting Station
Clear Clear  
Wind Chill: 77°   Ceiling: Unl
Heat Index: 78°   Visibility: 10mi
Dew Point: 52°   Wind: 6mph
Humidity: 41%   Direction: 280°W
Pressure: 29.88"   Gusts: NA
Location:  33.75°N, 83.17°W
Report Text: K3J7 212115Z AUTO 28005KT 10SM CLR 25/11 A2988 RMK AO2
Loading
Personal Weather Stations






























Interactive Weather Map
Tropical Storm Tracking
New forecast layout! Learn more

10-Day Weather Forecast

Advertisements
Track Severe Weather on mobile